createdAt,value
2018-06-11T00:01:37.350Z,29.40
2018-06-11T00:04:40.442Z,30.80
2018-06-11T00:07:43.533Z,27.90
2018-06-11T00:10:46.653Z,31.30
2018-06-11T00:13:49.736Z,29.90
2018-06-11T00:16:52.838Z,32.50
2018-06-11T00:19:55.909Z,31.87
2018-06-11T00:22:59.034Z,32.13
2018-06-11T00:26:02.104Z,31.13
2018-06-11T00:29:05.193Z,33.67
2018-06-11T00:32:08.284Z,32.93
2018-06-11T00:35:11.360Z,33.73
2018-06-11T00:38:14.469Z,34.90
2018-06-11T00:41:18.356Z,35.67
2018-06-11T00:44:21.449Z,35.30
2018-06-11T00:47:24.549Z,34.10
2018-06-11T00:50:27.621Z,35.80
2018-06-11T00:53:30.706Z,33.93
2018-06-11T00:56:33.785Z,34.73
2018-06-11T00:59:36.881Z,36.37
2018-06-11T01:02:39.956Z,34.13
2018-06-11T01:05:43.029Z,36.33
2018-06-11T01:08:46.124Z,35.40
2018-06-11T01:11:49.011Z,35.57
2018-06-11T01:14:51.936Z,33.13
2018-06-11T01:17:55.029Z,35.90
2018-06-11T01:20:58.109Z,28.70
2018-06-11T01:24:01.198Z,34.47
2018-06-11T01:27:04.365Z,33.10
2018-06-11T01:30:07.225Z,31.93
2018-06-11T01:33:10.312Z,33.07
2018-06-11T01:36:13.389Z,34.73
2018-06-11T01:39:16.486Z,31.80
2018-06-11T01:42:19.582Z,30.70
2018-06-11T01:45:22.687Z,37.27
2018-06-11T01:48:25.753Z,33.07
2018-06-11T01:51:28.861Z,31.00
2018-06-11T01:54:32.045Z,29.67
2018-06-11T01:57:35.149Z,33.37
2018-06-11T02:00:38.241Z,35.20
2018-06-11T02:03:41.333Z,30.77
2018-06-11T02:06:44.409Z,33.13
2018-06-11T02:09:47.497Z,33.43
2018-06-11T02:12:50.606Z,28.33
2018-06-11T02:15:53.709Z,36.27
2018-06-11T02:18:56.806Z,32.63
2018-06-11T02:21:59.936Z,34.37
2018-06-11T02:25:02.970Z,34.10
2018-06-11T02:28:06.052Z,34.37
2018-06-11T02:31:09.154Z,31.27
2018-06-11T02:34:12.250Z,32.93
2018-06-11T02:37:15.342Z,30.70
2018-06-11T02:40:18.441Z,35.13
2018-06-11T02:43:21.519Z,34.97
2018-06-11T02:46:24.614Z,34.17
2018-06-11T02:49:27.741Z,31.67
2018-06-11T02:52:30.820Z,33.30
2018-06-11T02:55:33.905Z,32.83
2018-06-11T02:58:37.001Z,34.23
2018-06-11T03:01:40.093Z,30.47
2018-06-11T03:04:43.211Z,34.27
2018-06-11T03:07:46.289Z,33.93
2018-06-11T03:10:49.190Z,35.93
2018-06-11T03:13:52.269Z,35.17
2018-06-11T03:16:55.185Z,33.07
2018-06-11T03:19:58.265Z,35.33
2018-06-11T03:23:01.361Z,31.70
2018-06-11T03:26:04.464Z,31.97
2018-06-11T03:29:07.549Z,33.87
2018-06-11T03:32:10.706Z,33.40
2018-06-11T03:35:13.577Z,36.50
2018-06-11T03:38:16.638Z,31.67
2018-06-11T03:41:19.718Z,31.90
2018-06-11T03:44:22.799Z,30.03
2018-06-11T03:47:25.889Z,35.53
2018-06-11T03:50:28.985Z,37.10
2018-06-11T03:53:32.059Z,32.30
2018-06-11T03:56:35.152Z,33.90
2018-06-11T03:59:38.247Z,33.70
2018-06-11T04:02:41.330Z,32.20
2018-06-11T04:05:44.226Z,30.20
2018-06-11T04:08:47.321Z,30.93
2018-06-11T04:11:50.430Z,29.37
2018-06-11T04:14:53.529Z,31.30
2018-06-11T04:17:56.622Z,29.77
2018-06-11T04:20:59.705Z,35.87
2018-06-11T04:24:02.786Z,33.43
2018-06-11T04:27:05.882Z,34.00
2018-06-11T04:30:08.956Z,31.13
2018-06-11T04:33:12.038Z,30.33
2018-06-11T04:36:15.126Z,30.67
2018-06-11T04:39:18.214Z,29.80
2018-06-11T04:42:21.096Z,30.57
2018-06-11T04:45:23.976Z,29.60
2018-06-11T04:48:27.037Z,31.93
2018-06-11T04:51:30.157Z,28.93
2018-06-11T04:54:33.089Z,29.83
2018-06-11T04:57:36.170Z,29.77
2018-06-11T05:00:39.261Z,26.83
2018-06-11T05:03:42.348Z,28.63
2018-06-11T05:06:45.453Z,30.93
2018-06-11T05:09:48.576Z,29.27
2018-06-11T05:12:51.673Z,27.50
2018-06-11T05:15:54.776Z,28.47
2018-06-11T05:18:57.861Z,28.37
2018-06-11T05:22:01.030Z,30.97
2018-06-11T05:25:04.102Z,27.13
2018-06-11T05:28:07.202Z,26.90
2018-06-11T05:31:10.272Z,29.37
2018-06-11T05:34:13.378Z,28.87
2018-06-11T05:37:16.458Z,30.47
2018-06-11T05:40:19.537Z,26.60
2018-06-11T05:43:22.401Z,28.60
2018-06-11T05:46:25.276Z,29.20
2018-06-11T05:49:28.349Z,27.90
2018-06-11T05:52:31.434Z,26.57
2018-06-11T05:55:34.528Z,26.87
2018-06-11T05:58:37.614Z,27.17
2018-06-11T06:01:40.693Z,28.73
2018-06-11T06:04:43.777Z,23.97
2018-06-11T06:07:46.864Z,29.97
2018-06-11T06:10:49.941Z,23.43
2018-06-11T06:13:52.825Z,23.83
2018-06-11T06:16:55.922Z,27.37
2018-06-11T06:19:59.630Z,22.80
2018-06-11T06:23:02.778Z,21.87
2018-06-11T06:26:05.848Z,25.20
2018-06-11T06:29:08.938Z,21.07
2018-06-11T06:32:12.062Z,22.03
2018-06-11T06:35:15.149Z,24.37
2018-06-11T06:38:18.229Z,22.93
2018-06-11T06:41:21.314Z,23.03
2018-06-11T06:44:24.393Z,21.83
2018-06-11T06:47:27.487Z,21.90
2018-06-11T06:50:30.578Z,24.37
2018-06-11T06:53:33.742Z,19.47
2018-06-11T06:56:36.770Z,24.70
2018-06-11T06:59:39.860Z,23.33
2018-06-11T07:02:42.984Z,21.77
2018-06-11T07:05:46.089Z,25.00
2018-06-11T07:08:48.986Z,24.03
2018-06-11T07:11:52.085Z,26.17
2018-06-11T07:14:55.213Z,22.37
2018-06-11T07:17:58.307Z,20.23
2018-06-11T07:21:01.414Z,22.40
2018-06-11T07:24:04.553Z,26.80
2018-06-11T07:27:07.433Z,26.53
2018-06-11T07:30:10.313Z,22.07
2018-06-11T07:33:13.185Z,21.57
2018-06-11T07:36:16.165Z,20.70
2018-06-11T07:39:19.281Z,23.03
2018-06-11T07:42:22.370Z,17.30
2018-06-11T07:45:25.253Z,16.40
2018-06-11T07:48:28.325Z,17.53
2018-06-11T07:51:31.424Z,15.27
2018-06-11T07:54:34.530Z,14.67
2018-06-11T07:57:37.628Z,15.80
2018-06-11T08:00:40.529Z,14.80
2018-06-11T08:03:43.616Z,15.07
2018-06-11T08:06:46.721Z,13.43
2018-06-11T08:09:49.835Z,15.67
2018-06-11T08:12:52.910Z,13.87
2018-06-11T08:15:56.004Z,14.13
2018-06-11T08:18:59.115Z,16.60
2018-06-11T08:22:02.197Z,17.33
2018-06-11T08:25:05.310Z,17.83
2018-06-11T08:28:08.490Z,22.20
2018-06-11T08:31:11.674Z,20.30
2018-06-11T08:34:14.842Z,21.03
2018-06-11T08:37:18.102Z,21.37
2018-06-11T08:40:21.381Z,21.03
2018-06-11T08:43:24.679Z,18.63
2018-06-11T08:46:27.974Z,21.57
2018-06-11T08:49:31.271Z,23.23
2018-06-11T08:52:34.685Z,17.47
2018-06-11T08:55:38.860Z,15.13
2018-06-11T08:58:43.057Z,16.03
2018-06-11T09:01:46.989Z,14.87
2018-06-11T09:04:50.233Z,15.67
2018-06-11T09:07:53.189Z,14.83
2018-06-11T09:10:56.519Z,15.83
2018-06-11T09:13:59.477Z,14.70
2018-06-11T09:17:02.782Z,14.27
2018-06-11T09:20:06.167Z,14.13
2018-06-11T09:23:09.369Z,14.40
2018-06-11T09:26:12.570Z,13.33
2018-06-11T09:29:15.790Z,14.53
2018-06-11T09:35:28.663Z,11.73
2018-06-11T09:38:31.919Z,12.37
2018-06-11T09:41:35.119Z,11.33
2018-06-11T09:44:38.042Z,13.57
2018-06-11T09:47:41.213Z,12.37
2018-06-11T09:50:44.462Z,12.23
2018-06-11T09:53:47.866Z,11.83
2018-06-11T09:56:51.141Z,11.50
2018-06-11T09:59:54.493Z,11.03
2018-06-11T10:02:57.510Z,10.97
2018-06-11T10:06:01.868Z,10.80
2018-06-11T10:09:07.559Z,11.20
2018-06-11T10:12:10.844Z,10.03
2018-06-11T10:15:13.984Z,10.87
2018-06-11T10:18:17.226Z,11.00
2018-06-11T10:21:20.171Z,11.17
2018-06-11T10:24:23.375Z,10.73
2018-06-11T10:27:26.722Z,10.00
2018-06-11T10:30:29.962Z,12.63
2018-06-11T10:33:33.199Z,11.53
2018-06-11T10:36:36.188Z,11.70
2018-06-11T10:39:39.366Z,11.97
2018-06-11T10:42:42.581Z,11.87
2018-06-11T10:45:45.522Z,13.13
2018-06-11T10:48:48.823Z,12.23
2018-06-11T10:51:52.035Z,13.67
2018-06-11T10:54:55.178Z,12.90
2018-06-11T10:57:58.339Z,12.23
2018-06-11T11:01:01.389Z,11.50
2018-06-11T11:04:04.483Z,18.17
2018-06-11T11:07:07.782Z,14.13
2018-06-11T11:10:10.878Z,12.47
2018-06-11T11:13:13.984Z,15.97
2018-06-11T11:16:17.074Z,12.33
2018-06-11T11:19:20.142Z,12.73
2018-06-11T11:22:23.258Z,13.17
2018-06-11T11:25:26.317Z,10.83
2018-06-11T11:28:29.414Z,11.20
2018-06-11T11:31:32.490Z,11.53
2018-06-11T11:34:35.637Z,11.13
2018-06-11T11:37:38.526Z,23.53
2018-06-11T11:40:41.590Z,10.10
2018-06-11T11:43:44.673Z,11.23
2018-06-11T11:46:47.752Z,11.70
2018-06-11T11:49:50.888Z,11.00
2018-06-11T11:52:53.771Z,10.87
2018-06-11T11:55:56.849Z,11.83
2018-06-11T11:58:59.938Z,12.07
2018-06-11T12:02:03.030Z,13.20
2018-06-11T12:05:06.126Z,12.50
2018-06-11T12:08:09.209Z,11.83
2018-06-11T12:11:12.314Z,14.27
2018-06-11T12:14:15.406Z,14.30
2018-06-11T12:17:18.485Z,12.00
2018-06-11T12:20:21.576Z,11.93
2018-06-11T12:23:24.673Z,12.97
2018-06-11T12:26:27.750Z,12.50
2018-06-11T12:29:30.861Z,10.73
2018-06-11T12:32:33.953Z,11.57
2018-06-11T12:35:37.049Z,12.13
2018-06-11T12:38:44.440Z,11.10
2018-06-11T12:41:47.578Z,11.27
2018-06-11T12:44:50.669Z,12.37
2018-06-11T12:47:53.757Z,12.17
2018-06-11T12:50:56.842Z,11.10
2018-06-11T12:53:59.944Z,11.40
2018-06-11T12:57:03.042Z,11.33
2018-06-11T13:00:06.134Z,13.27
2018-06-11T13:03:09.229Z,10.03
2018-06-11T13:06:12.321Z,11.33
2018-06-11T13:09:15.417Z,11.57
2018-06-11T13:12:18.505Z,10.87
2018-06-11T13:15:21.601Z,11.13
2018-06-11T13:18:24.665Z,10.97
2018-06-11T13:21:27.801Z,10.60
2018-06-11T13:24:30.887Z,10.77
2018-06-11T13:27:33.997Z,11.67
2018-06-11T13:30:37.101Z,10.27
2018-06-11T13:33:40.127Z,10.07
2018-06-11T13:36:43.233Z,9.97
2018-06-11T13:39:46.313Z,10.07
2018-06-11T13:42:49.381Z,9.40
2018-06-11T13:45:52.458Z,9.87
2018-06-11T13:48:55.549Z,8.40
2018-06-11T13:51:58.421Z,8.83
2018-06-11T13:55:01.498Z,9.40
2018-06-11T13:58:04.675Z,9.77
2018-06-11T14:01:07.778Z,8.93
2018-06-11T14:04:25.108Z,7.10
2018-06-11T14:07:28.184Z,7.37
2018-06-11T14:10:31.306Z,7.00
2018-06-11T14:13:34.389Z,7.37
2018-06-11T14:16:37.477Z,7.00
2018-06-11T14:19:40.562Z,8.03
2018-06-11T14:22:43.637Z,7.30
2018-06-11T14:25:46.749Z,7.07
2018-06-11T14:28:49.845Z,7.43
2018-06-11T14:31:52.937Z,7.50
2018-06-11T14:34:56.050Z,7.80
2018-06-11T14:37:59.104Z,7.83
2018-06-11T14:41:02.243Z,8.03
2018-06-11T14:44:05.294Z,8.07
2018-06-11T14:47:08.357Z,8.33
2018-06-11T14:50:11.446Z,8.83
2018-06-11T14:53:14.631Z,9.80
2018-06-11T14:56:17.737Z,10.13
2018-06-11T14:59:20.865Z,8.57
2018-06-11T15:02:23.945Z,9.50
2018-06-11T15:05:27.032Z,10.00
2018-06-11T15:08:30.891Z,10.10
2018-06-11T15:11:34.016Z,9.17
2018-06-11T15:14:37.863Z,9.87
2018-06-11T15:17:41.641Z,9.90
2018-06-11T15:20:48.523Z,11.53
2018-06-11T15:23:52.351Z,10.33
2018-06-11T15:26:56.066Z,8.50
2018-06-11T15:29:59.473Z,7.73
2018-06-11T15:33:03.005Z,8.87
2018-06-11T15:36:06.647Z,6.70
2018-06-11T15:39:10.344Z,6.30
2018-06-11T15:42:20.485Z,6.00
2018-06-11T15:45:24.629Z,5.67
2018-06-11T15:48:27.789Z,6.80
2018-06-11T15:51:31.333Z,8.60
2018-06-11T15:54:34.393Z,6.47
2018-06-11T15:57:38.018Z,7.53
2018-06-11T16:00:41.818Z,8.53
2018-06-11T16:03:45.969Z,7.13
2018-06-11T16:06:49.061Z,5.97
2018-06-11T16:09:52.113Z,5.40
2018-06-11T16:12:55.205Z,5.77
2018-06-11T16:15:58.294Z,7.10
2018-06-11T16:19:02.207Z,5.77
2018-06-11T16:22:06.000Z,5.67
2018-06-11T16:25:09.853Z,5.27
2018-06-11T16:28:13.681Z,5.90
2018-06-11T16:31:17.288Z,5.63
2018-06-11T16:34:21.036Z,5.60
2018-06-11T16:37:24.724Z,7.27
2018-06-11T16:40:28.212Z,6.77
2018-06-11T16:43:32.017Z,6.30
2018-06-11T16:46:35.129Z,10.87
2018-06-11T16:49:38.216Z,8.70
2018-06-11T16:52:41.289Z,6.37
2018-06-11T16:55:44.162Z,7.33
2018-06-11T16:58:47.250Z,6.77
2018-06-11T17:01:50.337Z,8.00
2018-06-11T17:04:53.421Z,7.77
2018-06-11T17:07:56.569Z,7.70
2018-06-11T17:10:59.633Z,8.40
2018-06-11T17:14:02.495Z,7.47
2018-06-11T17:17:24.081Z,6.90
2018-06-11T17:20:27.152Z,7.70
2018-06-11T17:23:30.248Z,8.30
2018-06-11T17:26:33.358Z,8.80
2018-06-11T17:29:36.421Z,7.47
2018-06-11T17:32:39.517Z,9.13
2018-06-11T17:35:42.609Z,6.93
2018-06-11T17:38:45.712Z,8.20
2018-06-11T17:41:48.788Z,9.17
2018-06-11T17:44:51.865Z,10.07
2018-06-11T17:47:54.754Z,10.37
2018-06-11T17:50:57.600Z,7.67
2018-06-11T17:54:00.681Z,9.67
2018-06-11T17:57:03.745Z,12.10
2018-06-11T18:00:06.837Z,10.07
2018-06-11T18:03:09.931Z,8.07
2018-06-11T18:06:13.087Z,8.63
2018-06-11T18:09:16.141Z,11.63
2018-06-11T18:12:19.213Z,8.87
2018-06-11T18:15:22.290Z,8.87
2018-06-11T18:18:25.397Z,12.40
2018-06-11T18:21:28.473Z,8.73
2018-06-11T18:24:31.537Z,8.63
2018-06-11T18:27:34.972Z,8.03
2018-06-11T18:30:41.647Z,7.67
2018-06-11T18:33:44.745Z,9.27
2018-06-11T18:36:47.837Z,9.57
2018-06-11T18:39:50.957Z,9.17
2018-06-11T18:42:54.024Z,8.83
2018-06-11T18:45:57.137Z,9.03
2018-06-11T18:49:00.234Z,9.20
2018-06-11T18:52:03.305Z,9.27
2018-06-11T18:55:06.415Z,11.37
2018-06-11T18:58:09.545Z,9.10
2018-06-11T19:01:12.609Z,8.23
2018-06-11T19:04:15.712Z,8.03
2018-06-11T19:07:18.824Z,8.47
2018-06-11T19:10:21.925Z,13.13
2018-06-11T19:13:25.146Z,8.27
2018-06-11T19:16:28.322Z,10.60
2018-06-11T19:19:31.623Z,8.90
2018-06-11T19:22:34.954Z,9.40
2018-06-11T19:25:38.188Z,11.93
2018-06-11T19:28:41.149Z,9.43
2018-06-11T19:31:44.407Z,9.27
2018-06-11T19:34:47.646Z,7.90
2018-06-11T19:37:50.810Z,8.73
2018-06-11T19:40:53.990Z,8.97
2018-06-11T19:43:57.187Z,9.60
2018-06-11T19:47:05.826Z,9.37
2018-06-11T19:50:09.089Z,8.47
2018-06-11T19:53:12.200Z,7.97
2018-06-11T19:56:15.539Z,20.87
2018-06-11T19:59:18.794Z,10.03
2018-06-11T20:02:21.877Z,9.17
2018-06-11T20:05:25.002Z,9.53
2018-06-11T20:08:28.069Z,8.00
2018-06-11T20:11:31.150Z,8.33
2018-06-11T20:14:34.290Z,12.33
2018-06-11T20:17:37.353Z,10.03
2018-06-11T20:20:40.429Z,10.37
2018-06-11T20:23:43.505Z,7.60
2018-06-11T20:26:46.624Z,8.60
2018-06-11T20:29:49.721Z,8.07
2018-06-11T20:32:52.797Z,8.70
2018-06-11T20:35:55.877Z,9.83
2018-06-11T20:38:58.968Z,6.80
2018-06-11T20:42:02.056Z,6.80
2018-06-11T20:45:05.144Z,8.70
2018-06-11T20:48:08.238Z,8.77
2018-06-11T20:51:11.333Z,15.23
2018-06-11T20:54:14.490Z,8.57
2018-06-11T20:57:17.577Z,8.20
2018-06-11T21:00:20.641Z,6.53
2018-06-11T21:03:23.742Z,6.70
2018-06-11T21:06:26.837Z,9.97
2018-06-11T21:09:29.912Z,8.23
2018-06-11T21:12:33.011Z,6.23
2018-06-11T21:15:36.122Z,5.73
2018-06-11T21:18:39.189Z,6.73
2018-06-11T21:21:42.283Z,8.20
2018-06-11T21:24:45.345Z,6.50
2018-06-11T21:27:48.425Z,6.30
2018-06-11T21:30:51.517Z,6.27
2018-06-11T21:33:54.604Z,6.50
2018-06-11T21:36:57.682Z,6.80
2018-06-11T21:40:08.614Z,8.83
2018-06-11T21:43:11.709Z,8.07
2018-06-11T21:46:14.800Z,9.30
2018-06-11T21:49:17.890Z,7.67
2018-06-11T21:52:20.988Z,7.60
2018-06-11T21:55:24.053Z,7.00
2018-06-11T21:58:27.178Z,7.13
2018-06-11T22:01:30.271Z,7.33
2018-06-11T22:04:33.361Z,8.93
2018-06-11T22:07:36.452Z,7.47
2018-06-11T22:10:39.501Z,7.07
2018-06-11T22:13:42.577Z,7.17
2018-06-11T22:16:45.669Z,7.50
2018-06-11T22:19:48.743Z,8.83
2018-06-11T22:22:51.841Z,7.93
2018-06-11T22:25:54.917Z,10.13
2018-06-11T22:28:58.027Z,10.67
2018-06-11T22:32:01.117Z,8.27
2018-06-11T22:35:04.234Z,8.50
2018-06-11T22:38:07.326Z,7.27
2018-06-11T22:41:10.405Z,9.80
2018-06-11T22:44:13.481Z,7.20
2018-06-11T22:47:16.610Z,7.00
2018-06-11T22:50:19.705Z,9.73
2018-06-11T22:53:22.781Z,8.50
2018-06-11T22:56:25.865Z,8.00
2018-06-11T22:59:28.930Z,6.87
2018-06-11T23:02:32.043Z,10.67
2018-06-11T23:05:35.140Z,8.97
2018-06-11T23:08:38.241Z,8.47
2018-06-11T23:11:41.321Z,7.63
2018-06-11T23:14:44.377Z,7.67
2018-06-11T23:17:47.249Z,8.30
2018-06-11T23:20:50.306Z,8.93
2018-06-11T23:23:53.401Z,7.93
2018-06-11T23:26:56.493Z,10.17
2018-06-11T23:29:59.584Z,9.87
2018-06-11T23:33:02.681Z,8.53
2018-06-11T23:36:05.762Z,8.23
2018-06-11T23:39:08.857Z,7.30
2018-06-11T23:42:11.961Z,9.40
2018-06-11T23:45:15.045Z,11.00
2018-06-11T23:48:18.197Z,8.73
2018-06-11T23:51:21.260Z,8.30
2018-06-11T23:54:24.140Z,12.10
2018-06-11T23:57:27.225Z,8.27
